createdAt,value
2023-04-24T00:02:04.610Z,96927.19
2023-04-24T00:04:33.189Z,96922.25
2023-04-24T00:07:01.281Z,96930.88
2023-04-24T00:09:28.633Z,96923.03
2023-04-24T00:11:55.580Z,96925.47
2023-04-24T00:14:22.958Z,96916.50
2023-04-24T00:16:50.002Z,96913.63
2023-04-24T00:19:17.653Z,96918.84
2023-04-24T00:21:44.524Z,96912.78
2023-04-24T00:24:11.482Z,96905.31
2023-04-24T00:26:38.233Z,96906.94
2023-04-24T00:29:04.999Z,96909.75
2023-04-24T00:31:31.833Z,96905.81
2023-04-24T00:33:59.302Z,96917.56
2023-04-24T00:36:26.466Z,96914.50
2023-04-24T00:38:53.207Z,96908.13
2023-04-24T00:41:20.081Z,96920.06
2023-04-24T00:43:47.311Z,96916.03
2023-04-24T00:46:14.792Z,96927.34
2023-04-24T00:48:41.733Z,96918.22
2023-04-24T00:51:08.577Z,96923.72
2023-04-24T00:53:35.853Z,96915.28
2023-04-24T00:56:04.146Z,96916.09
2023-04-24T00:58:32.333Z,96908.16
2023-04-24T01:01:02.111Z,96904.28
2023-04-24T01:03:33.240Z,96907.25
2023-04-24T01:06:00.853Z,96912.00
2023-04-24T01:08:29.433Z,96905.34
2023-04-24T01:10:57.944Z,96914.59
2023-04-24T01:13:27.700Z,96908.59
2023-04-24T01:15:54.659Z,96917.47
2023-04-24T01:18:22.978Z,96911.34
2023-04-24T01:20:54.231Z,96910.97
2023-04-24T01:23:21.211Z,96905.00
2023-04-24T01:25:49.287Z,96901.13
2023-04-24T01:28:18.414Z,96896.97
2023-04-24T01:30:45.931Z,96898.19
2023-04-24T01:33:14.684Z,96889.56
2023-04-24T01:35:41.713Z,96900.31
2023-04-24T01:38:08.843Z,96900.31
2023-04-24T01:40:36.115Z,96902.91
2023-04-24T01:43:03.701Z,96902.53
2023-04-24T01:45:30.571Z,96895.66
2023-04-24T01:47:58.298Z,96892.91
2023-04-24T01:50:25.292Z,96895.38
2023-04-24T01:52:52.285Z,96890.53
2023-04-24T01:55:22.175Z,96887.66
2023-04-24T01:57:49.308Z,96889.56
2023-04-24T02:00:16.454Z,96885.25
2023-04-24T02:02:45.832Z,96871.19
2023-04-24T02:05:14.496Z,96878.59
2023-04-24T02:07:41.261Z,96876.69
2023-04-24T02:10:08.663Z,96871.19
2023-04-24T02:12:35.758Z,96875.50
2023-04-24T02:15:02.646Z,96867.75
2023-04-24T02:17:29.521Z,96876.16
2023-04-24T02:19:56.187Z,96864.88
2023-04-24T02:22:23.053Z,96861.69
2023-04-24T02:24:49.801Z,96863.88
2023-04-24T02:27:16.526Z,96861.94
2023-04-24T02:29:44.017Z,96850.88
2023-04-24T02:32:13.812Z,96861.50
2023-04-24T02:34:43.680Z,96863.28
2023-04-24T02:37:11.140Z,96867.41
2023-04-24T02:39:38.144Z,96858.25
2023-04-24T02:42:09.104Z,96859.78
2023-04-24T02:44:36.106Z,96859.06
2023-04-24T02:47:03.058Z,96860.03
2023-04-24T02:49:29.707Z,96855.03
2023-04-24T02:51:56.530Z,96860.47
2023-04-24T02:54:23.361Z,96861.63
2023-04-24T02:56:50.094Z,96857.78
2023-04-24T02:59:16.731Z,96866.94
2023-04-24T03:01:43.517Z,96860.34
2023-04-24T03:04:11.578Z,96860.88
2023-04-24T03:06:38.662Z,96856.31
2023-04-24T03:09:05.868Z,96853.38
2023-04-24T03:11:35.903Z,96865.06
2023-04-24T03:14:02.869Z,96866.47
2023-04-24T03:16:29.622Z,96865.78
2023-04-24T03:18:56.508Z,96851.59
2023-04-24T03:21:26.335Z,96851.50
2023-04-24T03:23:53.732Z,96837.38
2023-04-24T03:26:20.749Z,96840.66
2023-04-24T03:28:47.405Z,96843.53
2023-04-24T03:31:14.252Z,96836.81
2023-04-24T03:33:40.955Z,96829.38
2023-04-24T03:36:07.885Z,96836.56
2023-04-24T03:38:34.814Z,96834.59
2023-04-24T03:41:01.546Z,96843.28
2023-04-24T03:43:28.593Z,96839.84
2023-04-24T03:45:55.420Z,96857.06
2023-04-24T03:48:22.103Z,96861.63
2023-04-24T03:50:49.239Z,96861.16
2023-04-24T03:53:16.277Z,96854.59
2023-04-24T03:55:45.909Z,96866.19
2023-04-24T03:58:12.753Z,96861.84
2023-04-24T04:00:41.362Z,96867.81
2023-04-24T04:03:08.542Z,96864.22
2023-04-24T04:05:35.942Z,96857.34
2023-04-24T04:08:03.196Z,96864.09
2023-04-24T04:10:30.095Z,96860.94
2023-04-24T04:12:57.203Z,96871.47
2023-04-24T04:15:24.248Z,96879.78
2023-04-24T04:17:51.130Z,96884.00
2023-04-24T04:20:18.023Z,96883.47
2023-04-24T04:22:44.830Z,96892.72
2023-04-24T04:25:12.749Z,96893.00
2023-04-24T04:27:40.181Z,96894.13
2023-04-24T04:30:10.922Z,96903.66
2023-04-24T04:32:38.380Z,96910.44
2023-04-24T04:35:05.773Z,96905.63
2023-04-24T04:37:34.361Z,96913.78
2023-04-24T04:40:04.591Z,96915.03
2023-04-24T04:42:31.674Z,96914.47
2023-04-24T04:44:58.823Z,96913.25
2023-04-24T04:47:25.831Z,96921.13
2023-04-24T04:49:53.110Z,96920.00
2023-04-24T04:52:22.862Z,96908.97
2023-04-24T04:54:49.829Z,96909.94
2023-04-24T04:57:16.495Z,96917.53
2023-04-24T04:59:43.478Z,96913.38
2023-04-24T05:02:10.740Z,96907.28
2023-04-24T05:04:37.721Z,96900.22
2023-04-24T05:07:05.023Z,96902.53
2023-04-24T05:09:31.769Z,96903.84
2023-04-24T05:11:58.572Z,96902.09
2023-04-24T05:14:25.377Z,96897.34
2023-04-24T05:16:52.108Z,96901.06
2023-04-24T05:19:19.223Z,96883.91
2023-04-24T05:21:46.524Z,96871.00
2023-04-24T05:24:13.298Z,96875.72
2023-04-24T05:26:43.279Z,96874.69
2023-04-24T05:29:10.435Z,96880.19
2023-04-24T05:31:37.500Z,96874.97
2023-04-24T05:34:04.293Z,96865.34
2023-04-24T05:36:32.001Z,96872.25
2023-04-24T05:38:59.121Z,96860.94
2023-04-24T05:41:26.370Z,96863.53
2023-04-24T05:43:53.015Z,96863.50
2023-04-24T05:46:20.297Z,96873.25
2023-04-24T05:48:47.282Z,96870.13
2023-04-24T05:51:14.293Z,96866.22
2023-04-24T05:53:41.065Z,96868.22
2023-04-24T05:56:08.239Z,96858.91
2023-04-24T05:58:35.111Z,96853.06
2023-04-24T06:01:02.899Z,96855.47
2023-04-24T06:03:30.248Z,96860.63
2023-04-24T06:05:57.106Z,96855.06
2023-04-24T06:08:23.769Z,96853.88
2023-04-24T06:10:50.907Z,96855.41
2023-04-24T06:13:17.879Z,96861.88
2023-04-24T06:15:45.246Z,96847.78
2023-04-24T06:18:12.130Z,96847.91
2023-04-24T06:20:39.179Z,96855.31
2023-04-24T06:23:06.107Z,96849.91
2023-04-24T06:25:32.918Z,96841.56
2023-04-24T06:27:59.799Z,96843.22
2023-04-24T06:30:26.604Z,96838.09
2023-04-24T06:32:55.801Z,96844.50
2023-04-24T06:35:24.421Z,96848.59
2023-04-24T06:37:51.347Z,96838.50
2023-04-24T06:40:19.754Z,96837.84
2023-04-24T06:42:46.604Z,96836.16
2023-04-24T06:45:13.649Z,96843.13
2023-04-24T06:47:40.855Z,96832.53
2023-04-24T06:50:08.249Z,96829.25
2023-04-24T06:52:35.060Z,96838.19
2023-04-24T06:55:05.541Z,96836.13
2023-04-24T06:57:32.962Z,96834.34
2023-04-24T07:00:00.246Z,96837.09
2023-04-24T07:02:27.526Z,96832.22
2023-04-24T07:04:54.914Z,96831.06
2023-04-24T07:07:24.980Z,96835.47
2023-04-24T07:09:52.492Z,96838.28
2023-04-24T07:12:21.653Z,96836.84
2023-04-24T07:14:49.044Z,96837.25
2023-04-24T07:17:15.972Z,96843.00
2023-04-24T07:19:43.424Z,96840.94
2023-04-24T07:22:12.544Z,96848.94
2023-04-24T07:24:39.220Z,96841.53
2023-04-24T07:27:06.429Z,96845.22
2023-04-24T07:29:33.332Z,96850.56
2023-04-24T07:32:02.051Z,96858.31
2023-04-24T07:34:30.496Z,96852.97
2023-04-24T07:36:57.261Z,96852.25
2023-04-24T07:39:24.622Z,96846.47
2023-04-24T07:41:51.719Z,96847.91
2023-04-24T07:44:18.369Z,96854.78
2023-04-24T07:46:45.269Z,96855.44
2023-04-24T07:49:14.208Z,96850.91
2023-04-24T07:51:42.979Z,96851.63
2023-04-24T07:54:10.162Z,96844.16
2023-04-24T07:56:40.163Z,96843.97
2023-04-24T07:59:07.307Z,96843.16
2023-04-24T08:01:34.162Z,96848.91
2023-04-24T08:04:01.295Z,96846.00
2023-04-24T08:06:31.714Z,96851.16
2023-04-24T08:08:59.760Z,96850.31
2023-04-24T08:11:27.452Z,96859.56
2023-04-24T08:13:55.833Z,96853.63
2023-04-24T08:16:23.065Z,96849.66
2023-04-24T08:18:50.289Z,96860.31
2023-04-24T08:21:21.031Z,96853.41
2023-04-24T08:23:52.431Z,96857.00
2023-04-24T08:26:19.630Z,96846.44
2023-04-24T08:28:46.484Z,96847.16
2023-04-24T08:31:13.584Z,96853.41
2023-04-24T08:33:42.040Z,96838.75
2023-04-24T08:36:08.944Z,96852.44
2023-04-24T08:38:35.944Z,96852.91
2023-04-24T08:41:03.599Z,96847.78
2023-04-24T08:43:30.751Z,96848.16
2023-04-24T08:46:09.090Z,96843.50
2023-04-24T08:48:39.422Z,96845.03
2023-04-24T08:51:08.057Z,96844.28
2023-04-24T08:53:35.836Z,96840.28
2023-04-24T08:56:05.664Z,96841.72
2023-04-24T08:58:32.790Z,96832.88
2023-04-24T09:01:00.149Z,96832.56
2023-04-24T09:03:29.574Z,96830.47
2023-04-24T09:05:56.702Z,96831.53
2023-04-24T09:08:26.316Z,96830.09
2023-04-24T09:10:53.416Z,96823.91
2023-04-24T09:13:21.575Z,96818.19
2023-04-24T09:15:49.570Z,96820.03
2023-04-24T09:18:19.228Z,96824.13
2023-04-24T09:21:02.253Z,96822.25
2023-04-24T09:23:33.254Z,96814.84
2023-04-24T09:26:02.306Z,96821.44
2023-04-24T09:28:40.264Z,96817.97
2023-04-24T09:31:08.325Z,96820.84
2023-04-24T09:33:35.649Z,96815.50
2023-04-24T09:36:03.606Z,96809.44
2023-04-24T09:38:34.438Z,96800.31
2023-04-24T09:41:04.528Z,96802.72
2023-04-24T09:43:31.746Z,96811.16
2023-04-24T09:45:59.829Z,96814.66
2023-04-24T09:48:37.529Z,96800.94
2023-04-24T09:51:08.022Z,96799.91
2023-04-24T09:53:34.835Z,96796.34
2023-04-24T09:56:09.364Z,96795.66
2023-04-24T09:58:37.836Z,96797.91
2023-04-24T10:01:04.866Z,96795.25
2023-04-24T10:03:33.130Z,96805.25
2023-04-24T10:06:10.399Z,96798.69
2023-04-24T10:08:39.926Z,96791.59
2023-04-24T10:11:08.403Z,96789.09
2023-04-24T10:13:36.713Z,96790.66
2023-04-24T10:16:08.468Z,96781.84
2023-04-24T10:18:36.443Z,96784.84
2023-04-24T10:21:03.920Z,96788.84
2023-04-24T10:23:31.883Z,96783.47
2023-04-24T10:26:01.452Z,96792.88
2023-04-24T10:28:31.877Z,96784.25
2023-04-24T10:30:59.527Z,96797.94
2023-04-24T10:33:27.466Z,96800.00
2023-04-24T10:35:55.102Z,96802.13
2023-04-24T10:38:26.310Z,96810.38
2023-04-24T10:40:58.341Z,96815.72
2023-04-24T10:43:25.518Z,96809.13
2023-04-24T10:46:11.577Z,96799.25
2023-04-24T10:48:44.693Z,96795.13
2023-04-24T10:51:14.152Z,96794.22
2023-04-24T10:53:41.016Z,96790.94
2023-04-24T10:56:13.412Z,96788.13
2023-04-24T10:58:49.369Z,96780.97
2023-04-24T11:01:30.816Z,96779.56
2023-04-24T11:04:02.704Z,96782.03
2023-04-24T11:06:37.632Z,96787.38
2023-04-24T11:09:15.067Z,96791.50
2023-04-24T11:11:46.945Z,96785.31
2023-04-24T11:14:17.458Z,96773.00
2023-04-24T11:16:53.828Z,96770.16
2023-04-24T11:19:27.647Z,96763.94
2023-04-24T11:22:04.980Z,96768.03
2023-04-24T11:24:39.083Z,96765.94
2023-04-24T11:27:06.010Z,96763.38
2023-04-24T11:29:58.750Z,96760.44
2023-04-24T11:32:35.021Z,96766.13
2023-04-24T11:35:10.369Z,96757.16
2023-04-24T11:37:39.509Z,96753.38
2023-04-24T11:40:08.894Z,96741.22
2023-04-24T11:42:37.309Z,96742.31
2023-04-24T11:45:12.986Z,96737.69
2023-04-24T11:47:41.025Z,96734.38
2023-04-24T11:50:10.817Z,96738.38
2023-04-24T11:52:42.796Z,96730.03
2023-04-24T11:55:24.102Z,96726.09
2023-04-24T11:58:00.726Z,96725.56
2023-04-24T12:00:30.473Z,96742.69
2023-04-24T12:03:15.846Z,96734.41
2023-04-24T12:05:43.193Z,96741.38
2023-04-24T12:08:10.581Z,96730.53
2023-04-24T12:10:37.956Z,96735.13
2023-04-24T12:13:04.693Z,96728.22
2023-04-24T12:15:31.721Z,96721.88
2023-04-24T12:17:59.045Z,96715.53
2023-04-24T12:20:33.875Z,96711.00
2023-04-24T12:23:02.576Z,96706.63
2023-04-24T12:25:33.886Z,96698.34
2023-04-24T12:28:07.142Z,96692.91
2023-04-24T12:30:37.248Z,96696.22
2023-04-24T12:33:04.834Z,96682.72
2023-04-24T12:35:36.855Z,96679.09
2023-04-24T12:38:11.933Z,96669.56
2023-04-24T12:40:38.757Z,96661.84
2023-04-24T12:43:24.110Z,96655.47
2023-04-24T12:46:00.154Z,96653.81
2023-04-24T12:48:30.438Z,96638.31
2023-04-24T12:51:02.672Z,96635.81
2023-04-24T12:53:32.980Z,96629.47
2023-04-24T12:55:59.811Z,96632.56
2023-04-24T12:58:27.046Z,96625.03
2023-04-24T13:00:54.016Z,96614.13
2023-04-24T13:03:21.486Z,96614.31
2023-04-24T13:05:48.475Z,96608.78
2023-04-24T13:08:15.633Z,96611.25
2023-04-24T13:10:42.496Z,96611.81
2023-04-24T13:13:09.864Z,96604.16
2023-04-24T13:15:37.421Z,96607.94
2023-04-24T13:18:04.098Z,96607.09
2023-04-24T13:20:31.165Z,96593.34
2023-04-24T13:22:57.896Z,96590.97
2023-04-24T13:25:24.826Z,96593.47
2023-04-24T13:27:51.987Z,96585.00
2023-04-24T13:30:19.109Z,96585.59
2023-04-24T13:32:46.011Z,96582.03
2023-04-24T13:35:13.098Z,96591.38
2023-04-24T13:37:40.104Z,96584.25
2023-04-24T13:40:08.204Z,96577.38
2023-04-24T13:42:35.409Z,96567.34
2023-04-24T13:45:10.926Z,96578.00
2023-04-24T13:47:44.994Z,96572.31
2023-04-24T13:50:11.726Z,96576.66
2023-04-24T13:52:38.620Z,96569.25
2023-04-24T13:55:06.053Z,96572.47
2023-04-24T13:57:33.814Z,96561.81
2023-04-24T14:00:07.166Z,96555.72
2023-04-24T14:02:34.112Z,96556.28
2023-04-24T14:05:01.899Z,96555.44
2023-04-24T14:07:29.667Z,96560.25
2023-04-24T14:09:56.386Z,96562.44
2023-04-24T14:12:23.338Z,96557.50
2023-04-24T14:14:50.348Z,96555.72
2023-04-24T14:17:17.229Z,96548.41
2023-04-24T14:19:44.014Z,96549.88
2023-04-24T14:22:13.305Z,96556.44
2023-04-24T14:24:40.191Z,96554.53
2023-04-24T14:27:07.306Z,96554.06
2023-04-24T14:29:35.368Z,96552.00
2023-04-24T14:32:02.530Z,96550.91
2023-04-24T14:34:29.322Z,96548.78
2023-04-24T14:36:57.601Z,96560.22
2023-04-24T14:39:24.826Z,96563.38
2023-04-24T14:41:51.869Z,96559.53
2023-04-24T14:44:18.658Z,96550.66
2023-04-24T14:46:45.555Z,96554.16
2023-04-24T14:49:13.777Z,96542.81
2023-04-24T14:51:41.156Z,96551.91
2023-04-24T14:54:08.208Z,96560.59
2023-04-24T14:56:35.326Z,96553.25
2023-04-24T14:59:02.503Z,96556.56
2023-04-24T15:01:31.153Z,96544.91
2023-04-24T15:03:58.153Z,96545.13
2023-04-24T15:06:25.987Z,96531.69
2023-04-24T15:08:52.733Z,96539.91
2023-04-24T15:11:19.759Z,96542.63
2023-04-24T15:13:46.747Z,96551.03
2023-04-24T15:16:14.203Z,96556.16
2023-04-24T15:18:41.202Z,96558.41
2023-04-24T15:21:11.326Z,96562.09
2023-04-24T15:23:38.267Z,96561.28
2023-04-24T15:26:05.514Z,96545.28
2023-04-24T15:28:32.274Z,96551.66
2023-04-24T15:30:59.089Z,96544.91
2023-04-24T15:33:26.981Z,96545.69
2023-04-24T15:35:53.847Z,96550.19
2023-04-24T15:38:21.101Z,96545.28
2023-04-24T15:40:49.397Z,96547.69
2023-04-24T15:43:17.277Z,96553.53
2023-04-24T15:45:44.312Z,96559.28
2023-04-24T15:48:11.176Z,96563.16
2023-04-24T15:50:37.998Z,96564.59
2023-04-24T15:53:05.103Z,96577.63
2023-04-24T15:55:31.960Z,96583.91
2023-04-24T15:57:58.850Z,96591.22
2023-04-24T16:00:26.030Z,96600.41
2023-04-24T16:02:53.115Z,96605.66
2023-04-24T16:05:20.683Z,96604.97
2023-04-24T16:07:47.408Z,96609.34
2023-04-24T16:10:16.836Z,96609.00
2023-04-24T16:12:43.727Z,96610.59
2023-04-24T16:15:11.338Z,96608.13
2023-04-24T16:17:38.515Z,96612.53
2023-04-24T16:20:06.322Z,96611.53
2023-04-24T16:22:33.473Z,96615.41
2023-04-24T16:25:00.972Z,96600.47
2023-04-24T16:27:28.296Z,96613.81
2023-04-24T16:29:57.026Z,96621.03
2023-04-24T16:32:24.531Z,96616.44
2023-04-24T16:34:52.441Z,96608.72
2023-04-24T16:37:19.711Z,96615.91
2023-04-24T16:39:47.047Z,96616.31
2023-04-24T16:42:15.686Z,96624.63
2023-04-24T16:44:44.092Z,96623.31
2023-04-24T16:47:17.742Z,96624.69
2023-04-24T16:49:45.256Z,96621.03
2023-04-24T16:52:12.953Z,96623.91
2023-04-24T16:54:40.548Z,96622.44
2023-04-24T16:57:08.220Z,96625.91
2023-04-24T16:59:35.853Z,96626.78
2023-04-24T17:02:03.249Z,96633.13
2023-04-24T17:04:31.520Z,96625.91
2023-04-24T17:06:59.118Z,96626.41
2023-04-24T17:09:26.337Z,96625.63
2023-04-24T17:11:53.591Z,96628.63
2023-04-24T17:14:21.219Z,96608.47
2023-04-24T17:16:48.760Z,96607.53
2023-04-24T17:19:16.171Z,96601.94
2023-04-24T17:21:43.417Z,96587.66
2023-04-24T17:24:11.044Z,96591.94
2023-04-24T17:26:38.378Z,96577.97
2023-04-24T17:29:05.558Z,96570.38
2023-04-24T17:32:04.260Z,96556.84
2023-04-24T17:34:36.430Z,96534.50
2023-04-24T17:37:05.192Z,96500.53
2023-04-24T17:39:36.554Z,96480.69
2023-04-24T17:42:29.888Z,96493.88
2023-04-24T17:45:13.565Z,96488.53
2023-04-24T17:48:23.931Z,96485.16
2023-04-24T17:51:10.892Z,96486.56
2023-04-24T17:53:50.106Z,96495.78
2023-04-24T17:56:46.623Z,96489.88
2023-04-24T18:03:03.038Z,96503.03
2023-04-24T18:05:52.671Z,96507.78
2023-04-24T18:11:48.393Z,96507.13
2023-04-24T18:14:15.698Z,96528.94
2023-04-24T18:17:56.795Z,96540.72
2023-04-24T18:20:23.779Z,96534.69
2023-04-24T18:23:14.179Z,96534.34
2023-04-24T18:28:41.989Z,96537.69
2023-04-24T18:31:38.513Z,96539.03
2023-04-24T18:34:09.850Z,96541.66
2023-04-24T18:40:10.908Z,96544.63
2023-04-24T18:42:41.837Z,96548.63
2023-04-24T18:45:14.877Z,96544.63
2023-04-24T18:47:50.713Z,96555.69
2023-04-24T18:53:36.679Z,96537.78
2023-04-24T18:56:21.633Z,96552.94
2023-04-24T18:58:55.432Z,96547.06
2023-04-24T19:01:23.612Z,96553.66
2023-04-24T19:03:57.668Z,96551.00
2023-04-24T19:06:25.825Z,96548.22
2023-04-24T19:08:59.919Z,96554.03
2023-04-24T19:11:34.217Z,96551.19
2023-04-24T19:14:16.291Z,96554.69
2023-04-24T19:16:48.392Z,96563.59
2023-04-24T19:19:17.308Z,96565.59
2023-04-24T19:21:50.239Z,96563.59
2023-04-24T19:24:26.713Z,96565.44
2023-04-24T19:29:52.348Z,96586.69
2023-04-24T19:32:22.568Z,96598.75
2023-04-24T19:38:56.797Z,96603.06
2023-04-24T19:45:01.897Z,96617.94
2023-04-24T19:47:29.995Z,96622.19
2023-04-24T19:49:58.409Z,96616.41
2023-04-24T19:52:48.646Z,96618.09
2023-04-24T19:55:55.066Z,96623.19
2023-04-24T19:58:56.390Z,96626.34
2023-04-24T20:01:33.285Z,96635.88
2023-04-24T20:04:02.805Z,96637.84
2023-04-24T20:12:20.846Z,96632.91
2023-04-24T20:14:52.873Z,96625.66
2023-04-24T20:18:09.224Z,96625.66
2023-04-24T20:21:00.501Z,96630.94
2023-04-24T20:23:55.535Z,96635.38
2023-04-24T20:26:28.762Z,96632.56
2023-04-24T20:32:07.349Z,96626.28
2023-04-24T20:34:56.573Z,96633.66
2023-04-24T20:37:28.085Z,96632.28
2023-04-24T20:39:56.713Z,96631.16
2023-04-24T20:42:24.693Z,96631.47
2023-04-24T20:44:51.896Z,96629.00
2023-04-24T20:47:22.428Z,96625.38
2023-04-24T20:49:50.931Z,96618.78
2023-04-24T20:52:25.585Z,96621.91
2023-04-24T20:54:53.720Z,96617.25
2023-04-24T20:57:23.896Z,96613.00
2023-04-24T20:59:59.816Z,96611.34
2023-04-24T21:02:28.017Z,96617.25
2023-04-24T21:05:04.877Z,96615.28
2023-04-24T21:07:33.466Z,96611.50
2023-04-24T21:10:05.451Z,96608.38
2023-04-24T21:15:31.438Z,96603.91
2023-04-24T21:17:59.228Z,96598.13
2023-04-24T21:20:27.405Z,96611.16
2023-04-24T21:23:17.197Z,96608.34
2023-04-24T21:26:09.602Z,96598.44
2023-04-24T21:28:37.394Z,96595.84
2023-04-24T21:31:04.695Z,96584.34
2023-04-24T21:33:43.597Z,96577.09
2023-04-24T21:36:16.989Z,96577.91
2023-04-24T21:38:50.430Z,96582.38
2023-04-24T21:41:36.517Z,96577.22
2023-04-24T21:44:03.779Z,96574.78
2023-04-24T21:46:46.133Z,96569.69
2023-04-24T21:49:17.475Z,96573.59
2023-04-24T21:51:45.141Z,96578.06
2023-04-24T21:54:39.642Z,96581.06
2023-04-24T21:57:22.095Z,96572.97
2023-04-24T22:00:10.221Z,96579.06
2023-04-24T22:02:47.316Z,96588.78
2023-04-24T22:05:32.816Z,96587.66
2023-04-24T22:08:47.083Z,96589.31
2023-04-24T22:11:25.687Z,96591.13
2023-04-24T22:14:07.263Z,96585.34
2023-04-24T22:16:49.034Z,96597.53
2023-04-24T22:19:18.895Z,96593.25
2023-04-24T22:21:52.023Z,96589.28
2023-04-24T22:24:20.839Z,96588.97
2023-04-24T22:26:49.173Z,96596.56
2023-04-24T22:29:19.741Z,96598.19
2023-04-24T22:31:47.699Z,96597.88
2023-04-24T22:37:05.618Z,96601.34
2023-04-24T22:39:42.301Z,96595.25
2023-04-24T22:42:16.564Z,96596.56
2023-04-24T22:44:49.462Z,96586.03
2023-04-24T22:47:25.195Z,96575.78
2023-04-24T22:49:54.535Z,96567.22
2023-04-24T22:52:22.587Z,96576.28
2023-04-24T22:54:52.895Z,96565.25
2023-04-24T22:57:30.805Z,96565.88
2023-04-24T23:00:00.549Z,96562.75
2023-04-24T23:02:34.461Z,96557.47
2023-04-24T23:05:05.347Z,96557.03
2023-04-24T23:07:34.165Z,96554.03
2023-04-24T23:10:10.804Z,96556.66
2023-04-24T23:12:41.380Z,96568.19
2023-04-24T23:15:11.362Z,96583.03
2023-04-24T23:17:45.285Z,96557.97
2023-04-24T23:20:16.949Z,96534.63
2023-04-24T23:22:50.398Z,96539.53
2023-04-24T23:25:20.769Z,96543.66
2023-04-24T23:27:48.096Z,96536.25
2023-04-24T23:30:15.809Z,96512.53
2023-04-24T23:32:44.658Z,96512.03
2023-04-24T23:35:15.941Z,96504.25
2023-04-24T23:37:46.238Z,96497.72
2023-04-24T23:40:13.906Z,96474.13
2023-04-24T23:42:40.903Z,96468.38
2023-04-24T23:45:08.706Z,96472.50
2023-04-24T23:47:35.930Z,96471.81
2023-04-24T23:50:03.015Z,96477.09
2023-04-24T23:52:29.939Z,96486.00
2023-04-24T23:54:56.915Z,96480.88
2023-04-24T23:57:23.865Z,96484.19
2023-04-24T23:59:50.823Z,96478.72
